Time;durP1;ratioP1;P1;durP2;ratioP2;P2;SDS_P1;SDS_P2;PMS_P1;PMS_P2;Temp;Humidity;BMP_temperature;BMP_pressure;BME280_temperature;BME280_humidity;BME280_pressure;Samples;Min_cycle;Max_cycle;Signal;HPM_P1;HPM_P2
2024/02/01 00:02:19;;;;;;;15.63;10.90;;;0.00;65.90;;;;;;5079854;28;20044;-73
2024/02/01 00:04:45;;;;;;;22.30;9.68;;;-0.10;66.40;;;;;;5092855;28;20020;-73
2024/02/01 00:07:11;;;;;;;16.60;8.85;;;-0.10;66.20;;;;;;5087673;28;20834;-73
2024/02/01 00:09:37;;;;;;;16.45;10.50;;;-0.10;66.00;;;;;;5091112;28;20154;-73
2024/02/01 00:12:04;;;;;;;22.55;12.30;;;-0.10;66.00;;;;;;5089965;28;20396;-72
2024/02/01 00:14:30;;;;;;;19.55;12.05;;;-0.20;65.40;;;;;;5087398;28;20036;-72
2024/02/01 00:16:56;;;;;;;17.85;10.30;;;-0.20;66.10;;;;;;5082671;28;20039;-73
2024/02/01 00:19:22;;;;;;;20.05;12.05;;;-0.20;66.70;;;;;;5089719;28;20039;-73
2024/02/01 00:21:49;;;;;;;12.80;9.43;;;-0.20;66.50;;;;;;5073438;28;20036;-73
2024/02/01 00:24:16;;;;;;;17.25;11.55;;;-0.30;66.40;;;;;;5085920;28;20059;-73
2024/02/01 00:26:42;;;;;;;21.60;11.00;;;-0.30;66.90;;;;;;5072323;28;20075;-72
2024/02/01 00:29:09;;;;;;;19.17;10.35;;;-0.30;66.80;;;;;;5070759;28;20098;-73
2024/02/01 00:31:35;;;;;;;21.05;10.88;;;-0.30;66.90;;;;;;5070143;28;20037;-73
2024/02/01 00:34:01;;;;;;;13.60;10.00;;;-0.30;67.10;;;;;;5072380;28;20032;-73
2024/02/01 00:36:27;;;;;;;12.63;8.98;;;-0.30;66.70;;;;;;5071557;28;20029;-73
2024/02/01 00:38:53;;;;;;;14.68;8.98;;;-0.30;66.50;;;;;;5071358;28;20040;-73
2024/02/01 00:41:19;;;;;;;11.50;6.85;;;-0.30;66.70;;;;;;5070134;28;20048;-73
2024/02/01 00:43:46;;;;;;;13.25;7.05;;;-0.30;66.80;;;;;;5071498;28;20032;-74
2024/02/01 00:46:14;;;;;;;12.10;6.97;;;-0.40;67.00;;;;;;5071223;28;20090;-73
2024/02/01 00:48:41;;;;;;;19.38;7.68;;;-0.40;67.00;;;;;;5071001;28;20409;-73
2024/02/01 00:51:08;;;;;;;9.55;6.53;;;-0.40;66.70;;;;;;5070172;28;20513;-73
2024/02/01 00:53:34;;;;;;;15.63;7.45;;;-0.40;66.10;;;;;;5071140;28;20027;-73
2024/02/01 00:56:00;;;;;;;11.43;6.95;;;-0.40;66.90;;;;;;5072393;28;20052;-72
2024/02/01 00:58:26;;;;;;;17.00;7.35;;;-0.40;66.70;;;;;;5070768;28;20036;-72
2024/02/01 01:00:52;;;;;;;10.80;6.95;;;-0.50;67.20;;;;;;5069808;28;20075;-73
2024/02/01 01:03:18;;;;;;;10.82;5.70;;;-0.40;67.00;;;;;;5054259;28;20028;-73
2024/02/01 01:05:44;;;;;;;16.23;9.35;;;-0.40;66.90;;;;;;5070893;28;20037;-73
2024/02/01 01:08:10;;;;;;;15.60;8.63;;;-0.50;67.10;;;;;;5054053;28;20028;-73
2024/02/01 01:10:36;;;;;;;10.18;6.45;;;-0.40;66.90;;;;;;5071542;28;20106;-73
2024/02/01 01:13:02;;;;;;;22.08;7.63;;;-0.50;67.10;;;;;;5071751;28;20024;-72
2024/02/01 01:15:29;;;;;;;12.52;8.27;;;-0.50;67.10;;;;;;5053767;28;20047;-73
2024/02/01 01:17:55;;;;;;;11.82;8.05;;;-0.50;66.90;;;;;;5086518;28;20064;-73
2024/02/01 01:20:21;;;;;;;9.40;5.35;;;-0.50;66.90;;;;;;5070632;28;20029;-73
2024/02/01 01:22:47;;;;;;;;;;;-0.60;66.90;;;;;;5071785;28;20292;-73
2024/02/01 01:25:14;;;;;;;26.40;7.20;;;-0.60;67.00;;;;;;5070107;28;19920;-73
2024/02/01 01:27:40;;;;;;;13.43;5.05;;;-0.60;67.50;;;;;;5071307;28;20056;-73
2024/02/01 01:30:07;;;;;;;14.13;7.70;;;-0.60;66.60;;;;;;5071089;28;20048;-73
2024/02/01 01:32:33;;;;;;;10.57;5.03;;;-0.60;66.70;;;;;;5070285;28;20016;-73
2024/02/01 01:35:00;;;;;;;13.27;7.68;;;-0.60;66.70;;;;;;5071406;28;20413;-73
2024/02/01 01:37:27;;;;;;;15.05;6.20;;;-0.60;66.80;;;;;;5069574;28;20516;-73
2024/02/01 01:39:53;;;;;;;10.80;4.97;;;-0.70;66.70;;;;;;5069734;28;20383;-73
2024/02/01 01:42:19;;;;;;;11.05;6.40;;;-0.70;67.10;;;;;;5070482;28;20044;-72
2024/02/01 01:44:45;;;;;;;8.90;4.60;;;-0.80;66.80;;;;;;5070298;28;20035;-73
2024/02/01 01:47:11;;;;;;;10.10;6.00;;;-0.80;66.90;;;;;;5071017;28;20578;-73
2024/02/01 01:49:38;;;;;;;12.15;5.55;;;-0.80;66.90;;;;;;5052957;28;20070;-73
2024/02/01 01:52:04;;;;;;;10.88;6.50;;;-0.80;66.90;;;;;;5068973;28;20056;-73
2024/02/01 01:54:33;;;;;;;14.05;5.85;;;-0.90;66.70;;;;;;5070789;28;20464;-73
2024/02/01 01:57:00;;;;;;;12.43;7.07;;;-0.80;66.60;;;;;;5069429;28;20076;-72
2024/02/01 01:59:26;;;;;;;18.23;7.10;;;-0.90;66.00;;;;;;5069835;28;20496;-73
2024/02/01 02:01:52;;;;;;;;;;;-0.90;66.40;;;;;;5069419;28;20118;-73
2024/02/01 02:04:20;;;;;;;8.10;4.60;;;-0.90;66.40;;;;;;5069602;28;20275;-73
2024/02/01 02:06:47;;;;;;;18.15;5.97;;;-1.00;66.60;;;;;;5070997;28;20469;-73
2024/02/01 02:09:13;;;;;;;6.65;4.18;;;-1.00;66.90;;;;;;5069423;28;20132;-73
2024/02/01 02:11:58;;;;;;;;;;;-1.00;67.10;;;;;;5069763;28;20408;-73
2024/02/01 02:14:24;;;;;;;5.78;3.70;;;-1.00;66.70;;;;;;5071208;28;19912;-73
2024/02/01 02:16:50;;;;;;;11.25;4.40;;;-1.00;66.80;;;;;;5071787;28;20035;-72
2024/02/01 02:19:17;;;;;;;8.13;4.65;;;-1.00;66.70;;;;;;5070054;28;20495;-72
2024/02/01 02:22:01;;;;;;;4.97;2.65;;;-1.00;66.70;;;;;;5069610;28;20048;-73
2024/02/01 02:24:27;;;;;;;4.90;3.80;;;-1.00;67.00;;;;;;5070110;28;20067;-73
2024/02/01 02:26:53;;;;;;;26.48;4.00;;;-1.00;67.30;;;;;;5070990;28;20090;-73
2024/02/01 02:29:20;;;;;;;12.88;5.45;;;-1.00;67.40;;;;;;5069273;28;20078;-72
2024/02/01 02:31:47;;;;;;;5.22;3.85;;;-1.10;67.20;;;;;;5069883;28;20120;-73
2024/02/01 02:34:14;;;;;;;7.18;4.70;;;-1.10;67.00;;;;;;5052269;28;20040;-73
2024/02/01 02:36:40;;;;;;;10.98;5.15;;;-1.20;67.20;;;;;;5070742;28;20025;-73
2024/02/01 02:39:09;;;;;;;15.13;5.72;;;-1.10;67.50;;;;;;5073026;28;20063;-73
2024/02/01 02:41:35;;;;;;;10.40;7.15;;;-1.10;67.00;;;;;;5072173;28;20516;-73
2024/02/01 02:44:02;;;;;;;7.05;2.58;;;-1.10;66.50;;;;;;5074850;28;20025;-73
2024/02/01 02:46:30;;;;;;;8.43;4.30;;;-1.10;67.40;;;;;;5074605;28;20085;-73
2024/02/01 02:48:56;;;;;;;6.93;4.70;;;-1.20;67.30;;;;;;5073653;28;20036;-73
2024/02/01 02:51:23;;;;;;;13.68;6.30;;;-1.20;67.20;;;;;;5074108;28;20389;-72
2024/02/01 02:53:49;;;;;;;10.13;5.53;;;-1.20;67.30;;;;;;5073532;28;20100;-73
2024/02/01 02:56:15;;;;;;;7.80;3.42;;;-1.20;67.30;;;;;;5056807;28;20154;-73
2024/02/01 02:58:41;;;;;;;9.88;5.57;;;-1.30;67.80;;;;;;5073002;28;20047;-73
2024/02/01 03:01:08;;;;;;;4.05;2.63;;;-1.20;67.60;;;;;;5071825;28;20519;-73
2024/02/01 03:03:40;;;;;;;6.88;4.00;;;-1.20;67.40;;;;;;5073740;28;20021;-73
2024/02/01 03:06:10;;;;;;;8.75;4.50;;;-1.30;66.70;;;;;;5072580;28;20120;-73
2024/02/01 03:08:55;;;;;;;11.80;5.00;;;-1.30;66.80;;;;;;5072621;28;20106;-73
2024/02/01 03:11:21;;;;;;;7.55;4.82;;;-1.30;67.40;;;;;;5073674;28;20033;-73
2024/02/01 03:13:47;;;;;;;5.65;2.83;;;-1.30;68.20;;;;;;5073827;28;20082;-73
2024/02/01 03:16:32;;;;;;;6.82;4.00;;;-1.30;67.40;;;;;;5074034;28;20075;-73
2024/02/01 03:18:58;;;;;;;6.50;4.70;;;-1.20;67.30;;;;;;5074016;28;20108;-73
2024/02/01 03:21:27;;;;;;;3.95;2.78;;;-1.30;67.30;;;;;;5073381;28;20110;-73
2024/02/01 03:23:58;;;;;;;6.72;3.40;;;-1.30;67.70;;;;;;5072540;28;20052;-73
2024/02/01 03:26:25;;;;;;;3.97;2.10;;;-1.30;67.60;;;;;;5072887;28;20048;-72
2024/02/01 03:28:52;;;;;;;9.65;4.38;;;-1.30;67.30;;;;;;5073193;28;20486;-72
2024/02/01 03:31:19;;;;;;;8.77;5.55;;;-1.30;67.40;;;;;;5087823;28;20051;-73
2024/02/01 03:33:47;;;;;;;6.80;4.90;;;-1.30;67.40;;;;;;5073111;28;20033;-73
2024/02/01 03:36:14;;;;;;;4.40;2.72;;;-1.30;67.20;;;;;;5071818;28;20041;-73
2024/02/01 03:38:42;;;;;;;9.90;4.68;;;-1.30;67.10;;;;;;5073013;28;20036;-73
2024/02/01 03:41:11;;;;;;;7.10;3.78;;;-1.40;67.00;;;;;;5070812;28;20040;-73
2024/02/01 03:43:37;;;;;;;6.03;4.05;;;-1.40;66.40;;;;;;5071785;28;20032;-73
2024/02/01 03:46:04;;;;;;;7.05;3.67;;;-1.40;66.90;;;;;;5071476;28;20033;-73
2024/02/01 03:48:32;;;;;;;11.88;5.45;;;-1.50;66.70;;;;;;5072666;28;20552;-73
2024/02/01 03:50:58;;;;;;;6.20;4.30;;;-1.50;67.50;;;;;;5072099;28;20055;-73
2024/02/01 03:53:24;;;;;;;5.82;3.22;;;-1.50;67.70;;;;;;5072163;28;20493;-73
2024/02/01 03:55:50;;;;;;;9.75;2.67;;;-1.40;67.50;;;;;;5071810;28;20044;-72
2024/02/01 03:58:16;;;;;;;6.13;3.20;;;-1.40;67.60;;;;;;5071405;28;20029;-73
2024/02/01 04:00:44;;;;;;;;;;;-1.50;67.40;;;;;;5071058;28;20070;-73
2024/02/01 04:03:14;;;;;;;5.30;3.58;;;-1.50;66.90;;;;;;5072680;28;19944;-73
2024/02/01 04:05:41;;;;;;;5.50;3.72;;;-1.50;66.50;;;;;;5072922;28;20036;-73
2024/02/01 04:08:08;;;;;;;7.20;4.82;;;-1.50;67.00;;;;;;5071285;28;20484;-73
2024/02/01 04:10:38;;;;;;;8.93;5.47;;;-1.50;67.20;;;;;;5070162;28;20052;-72
2024/02/01 04:13:07;;;;;;;9.00;4.18;;;-1.50;67.20;;;;;;5072235;28;20609;-73
2024/02/01 04:15:35;;;;;;;7.28;2.47;;;-1.50;67.20;;;;;;5071856;28;20048;-73
2024/02/01 04:18:03;;;;;;;3.80;2.90;;;-1.50;67.10;;;;;;5072009;28;20033;-73
2024/02/01 04:20:48;;;;;;;9.45;6.55;;;-1.50;67.00;;;;;;5070325;28;20497;-73
2024/02/01 04:23:14;;;;;;;6.35;3.45;;;-1.40;67.10;;;;;;5071824;28;20031;-73
2024/02/01 04:25:40;;;;;;;7.60;4.20;;;-1.40;67.10;;;;;;5070920;28;20037;-73
2024/02/01 04:28:08;;;;;;;;;;;-1.40;67.00;;;;;;5071394;28;20548;-73
2024/02/01 04:30:37;;;;;;;5.10;3.33;;;-1.40;66.80;;;;;;5070073;28;19921;-73
2024/02/01 04:33:03;;;;;;;3.67;2.03;;;-1.40;66.80;;;;;;5070632;28;20028;-73
2024/02/01 04:35:29;;;;;;;6.78;3.92;;;-1.40;66.90;;;;;;5070360;28;20048;-73
2024/02/01 04:37:55;;;;;;;8.27;4.15;;;-1.40;67.00;;;;;;5053878;28;20397;-73
2024/02/01 04:40:21;;;;;;;6.88;2.60;;;-1.40;67.10;;;;;;5070037;28;20053;-73
2024/02/01 04:42:51;;;;;;;10.45;5.10;;;-1.40;66.90;;;;;;5070561;28;20040;-73
2024/02/01 04:45:18;;;;;;;6.70;3.70;;;-1.40;66.80;;;;;;5070323;28;20148;-73
2024/02/01 04:47:44;;;;;;;13.25;9.40;;;-1.40;66.70;;;;;;5087075;28;20090;-73
2024/02/01 04:50:11;;;;;;;15.27;6.28;;;-1.40;66.40;;;;;;5069653;28;20041;-73
2024/02/01 04:52:37;;;;;;;14.73;6.72;;;-1.30;66.50;;;;;;5071550;28;20052;-73
2024/02/01 04:55:03;;;;;;;8.18;2.95;;;-1.40;67.50;;;;;;5070270;28;20032;-73
2024/02/01 04:57:30;;;;;;;9.25;5.55;;;-1.40;66.70;;;;;;5070352;28;20494;-73
2024/02/01 04:59:56;;;;;;;13.68;6.38;;;-1.30;67.10;;;;;;5070080;28;20086;-73
2024/02/01 05:02:22;;;;;;;19.20;7.50;;;-1.30;67.00;;;;;;5068645;28;20036;-73
2024/02/01 05:04:49;;;;;;;14.60;7.25;;;-1.30;67.30;;;;;;5071599;28;20047;-72
2024/02/01 05:07:15;;;;;;;4.70;4.00;;;-1.30;67.30;;;;;;5070027;28;20505;-73
2024/02/01 05:09:43;;;;;;;7.55;5.55;;;-1.30;66.50;;;;;;5071353;28;20432;-73
2024/02/01 05:12:09;;;;;;;9.07;5.63;;;-1.30;67.00;;;;;;5069074;28;20067;-73
2024/02/01 05:14:36;;;;;;;17.17;6.03;;;-1.30;67.00;;;;;;5069989;28;20028;-73
2024/02/01 05:17:02;;;;;;;18.60;7.70;;;-1.30;67.00;;;;;;5069677;28;20036;-72
2024/02/01 05:19:29;;;;;;;23.65;9.85;;;-1.30;67.50;;;;;;5070092;28;20052;-73
2024/02/01 05:21:55;;;;;;;13.88;6.88;;;-1.30;67.00;;;;;;5069091;28;20043;-73
2024/02/01 05:24:22;;;;;;;11.07;7.40;;;-1.30;67.00;;;;;;5069701;28;20044;-73
2024/02/01 05:26:50;;;;;;;14.98;6.65;;;-1.30;67.80;;;;;;5069861;28;20033;-73
2024/02/01 05:29:36;;;;;;;11.15;6.88;;;-1.20;67.40;;;;;;5069635;28;20056;-73
2024/02/01 05:32:06;;;;;;;16.38;8.82;;;-1.20;67.60;;;;;;5068924;28;20048;-72
2024/02/01 05:34:35;;;;;;;11.35;6.75;;;-1.20;67.60;;;;;;5070187;28;20556;-73
2024/02/01 05:37:02;;;;;;;23.25;8.68;;;-1.30;68.10;;;;;;5070034;28;20068;-73
2024/02/01 05:39:28;;;;;;;8.15;4.85;;;-1.30;68.90;;;;;;5069794;28;20025;-73
2024/02/01 05:41:56;;;;;;;12.77;5.38;;;-1.30;68.90;;;;;;5068955;28;20045;-73
2024/02/01 05:44:25;;;;;;;15.57;6.45;;;-1.30;68.60;;;;;;5069743;28;20020;-73
2024/02/01 05:46:54;;;;;;;16.23;10.52;;;-1.30;68.50;;;;;;5069700;28;20123;-73
2024/02/01 05:49:22;;;;;;;8.95;4.35;;;-1.30;68.30;;;;;;5069623;28;20499;-73
2024/02/01 05:51:50;;;;;;;14.90;7.80;;;-1.40;68.40;;;;;;5069103;28;20045;-73
2024/02/01 05:54:19;;;;;;;9.65;5.00;;;-1.40;68.80;;;;;;5069413;28;20033;-73
2024/02/01 05:57:04;;;;;;;10.63;6.55;;;-1.50;69.10;;;;;;5069744;28;20040;-73
2024/02/01 05:59:30;;;;;;;8.07;5.88;;;-1.40;69.60;;;;;;5071101;28;20052;-72
2024/02/01 06:01:56;;;;;;;30.67;8.70;;;-1.40;69.80;;;;;;5052074;28;20029;-73
2024/02/01 06:04:22;;;;;;;19.05;7.45;;;-1.40;70.30;;;;;;5069439;28;20083;-73
2024/02/01 06:06:48;;;;;;;9.85;7.18;;;-1.50;70.80;;;;;;5069753;28;20102;-73
2024/02/01 06:09:15;;;;;;;16.95;8.93;;;-1.40;70.50;;;;;;5070686;28;20534;-73
2024/02/01 06:12:00;;;;;;;10.45;6.10;;;-1.40;70.50;;;;;;5068700;28;20460;-72
2024/02/01 06:14:26;;;;;;;12.82;7.55;;;-1.40;71.30;;;;;;5072682;28;20503;-73
2024/02/01 06:16:52;;;;;;;16.33;7.05;;;-1.40;70.80;;;;;;5072955;28;20468;-73
2024/02/01 06:19:18;;;;;;;8.60;5.47;;;-1.40;70.90;;;;;;5074270;28;20031;-73
2024/02/01 06:21:44;;;;;;;16.70;7.38;;;-1.40;70.90;;;;;;5073987;28;20041;-73
2024/02/01 06:24:10;;;;;;;14.82;9.07;;;-1.40;70.90;;;;;;5072896;28;20052;-73
2024/02/01 06:26:36;;;;;;;19.70;10.38;;;-1.40;70.90;;;;;;5073177;28;20090;-73
2024/02/01 06:29:09;;;;;;;10.50;7.93;;;-1.40;71.00;;;;;;5072811;28;20024;-72
2024/02/01 06:31:37;;;;;;;13.63;5.75;;;-1.50;71.20;;;;;;5072441;28;20045;-73
2024/02/01 06:37:09;;;;;;;19.70;7.57;;;-1.50;71.50;;;;;;5074162;28;20079;-72
2024/02/01 06:42:13;;;;;;;10.20;7.90;;;-1.40;70.70;;;;;;5072360;28;19921;-73
2024/02/01 06:44:48;;;;;;;25.40;9.02;;;-1.40;70.60;;;;;;5074051;28;20039;-73
2024/02/01 06:47:23;;;;;;;19.65;9.45;;;-1.50;70.70;;;;;;5072330;28;20414;-73
2024/02/01 06:50:00;;;;;;;10.40;8.82;;;-1.50;70.30;;;;;;5074025;28;20462;-72
2024/02/01 07:06:33;;;;;;;18.63;10.15;;;-1.30;70.40;;;;;;5072477;28;20033;-73
2024/02/01 07:09:16;;;;;;;19.17;10.15;;;-1.30;71.10;;;;;;5073541;28;20036;-73
2024/02/01 07:11:59;;;;;;;18.55;8.45;;;-1.20;70.70;;;;;;5073060;28;20044;-73
2024/02/01 07:14:36;;;;;;;18.80;10.70;;;-1.20;70.40;;;;;;5072435;28;20029;-72
2024/02/01 07:17:27;;;;;;;28.67;13.45;;;-1.10;70.40;;;;;;5072069;28;20029;-73
2024/02/01 07:19:56;;;;;;;14.02;10.02;;;-1.10;71.10;;;;;;5073348;28;20044;-73
2024/02/01 07:22:38;;;;;;;18.23;10.77;;;-1.10;70.90;;;;;;5071387;28;20040;-73
2024/02/01 07:58:16;;;;;;;13.00;9.70;;;-0.40;69.90;;;;;;5072780;28;20519;-73
2024/02/01 08:00:45;;;;;;;14.77;9.75;;;-0.30;69.70;;;;;;5072421;28;20102;-73
2024/02/01 08:08:26;;;;;;;17.77;10.80;;;-0.10;69.60;;;;;;5072834;28;20082;-73
2024/02/01 08:10:58;;;;;;;;;;;0.00;69.60;;;;;;5072292;28;20090;-73
2024/02/01 08:13:25;;;;;;;18.20;11.00;;;0.10;69.70;;;;;;5072481;28;19912;-73
2024/02/01 08:15:55;;;;;;;23.00;11.93;;;0.30;69.40;;;;;;5054218;28;20093;-73
2024/02/01 08:18:23;;;;;;;24.38;13.80;;;0.40;69.40;;;;;;5070879;28;20025;-73
2024/02/01 08:20:49;;;;;;;20.98;13.90;;;0.40;69.60;;;;;;5070312;28;20033;-73
2024/02/01 08:26:02;;;;;;;15.95;10.07;;;0.60;69.00;;;;;;5071036;28;20519;-73
2024/02/01 08:28:32;;;;;;;19.88;11.63;;;0.80;68.70;;;;;;5071959;28;20547;-72
2024/02/01 08:33:50;;;;;;;13.93;11.05;;;1.00;68.10;;;;;;5071176;28;20453;-73
2024/02/01 08:36:20;;;;;;;20.85;11.43;;;1.20;68.10;;;;;;5087208;28;20033;-73
2024/02/01 08:38:46;;;;;;;18.50;10.82;;;1.30;68.00;;;;;;5070463;28;20062;-73
2024/02/01 08:41:12;;;;;;;15.18;8.45;;;1.50;67.70;;;;;;5069597;28;20179;-73
2024/02/01 08:43:40;;;;;;;23.08;13.73;;;1.70;67.50;;;;;;5070620;28;20094;-73
2024/02/01 08:46:06;;;;;;;13.88;10.73;;;1.80;67.50;;;;;;5071820;28;20037;-72
2024/02/01 08:48:32;;;;;;;15.07;7.53;;;2.00;67.10;;;;;;5070259;28;20501;-72
2024/02/01 08:50:58;;;;;;;14.32;8.07;;;2.10;67.00;;;;;;5070847;28;20051;-73
2024/02/01 08:53:26;;;;;;;14.45;9.20;;;2.20;66.70;;;;;;5071632;28;20040;-72
2024/02/01 08:55:52;;;;;;;19.63;10.93;;;2.80;66.30;;;;;;5070036;28;20048;-72
2024/02/01 08:58:20;;;;;;;15.30;8.90;;;4.60;61.80;;;;;;5070217;28;20032;-72
2024/02/01 09:00:47;;;;;;;15.50;6.35;;;6.10;56.80;;;;;;5069412;28;20071;-72
2024/02/01 09:03:16;;;;;;;13.15;7.43;;;6.50;54.80;;;;;;5071232;28;20390;-72
2024/02/01 09:05:43;;;;;;;9.85;7.28;;;7.20;54.50;;;;;;5070268;28;20032;-73
2024/02/01 09:08:13;;;;;;;9.18;5.30;;;8.00;52.40;;;;;;5070051;28;20036;-72
2024/02/01 09:11:01;;;;;;;4.68;3.63;;;9.00;50.30;;;;;;5069305;28;20040;-71
2024/02/01 09:13:28;;;;;;;6.75;4.93;;;10.10;46.60;;;;;;5070171;28;20028;-70
2024/02/01 09:15:56;;;;;;;7.80;3.13;;;10.50;44.80;;;;;;5071194;28;20033;-71
2024/02/01 09:18:23;;;;;;;6.45;3.35;;;10.70;45.40;;;;;;5069760;28;20063;-70
2024/02/01 09:20:49;;;;;;;7.93;4.25;;;10.50;44.70;;;;;;5085848;28;20070;-70
2024/02/01 09:23:15;;;;;;;7.22;5.28;;;10.00;46.30;;;;;;5070879;28;20028;-70
2024/02/01 09:25:43;;;;;;;5.78;3.28;;;9.80;46.80;;;;;;5071284;28;20032;-70
2024/02/01 09:28:14;;;;;;;8.45;5.03;;;10.40;45.00;;;;;;5069739;28;20111;-70
2024/02/01 09:30:47;;;;;;;4.95;3.13;;;10.50;43.90;;;;;;5069286;28;20041;-70
2024/02/01 09:33:34;;;;;;;19.27;6.65;;;10.30;44.00;;;;;;5069816;28;20093;-70
2024/02/01 09:36:00;;;;;;;5.10;2.45;;;10.10;43.20;;;;;;5070949;28;20055;-70
2024/02/01 09:38:27;;;;;;;3.67;1.83;;;10.00;44.00;;;;;;5070018;28;20024;-70
2024/02/01 09:40:54;;;;;;;9.05;3.08;;;10.40;42.20;;;;;;5068935;28;20061;-72
2024/02/01 09:43:21;;;;;;;5.68;3.33;;;11.00;40.20;;;;;;5069775;28;20043;-72
2024/02/01 09:46:08;;;;;;;4.63;2.80;;;10.70;39.00;;;;;;5069624;28;20439;-72
2024/02/01 09:48:38;;;;;;;4.38;2.65;;;10.60;40.20;;;;;;5071521;28;20047;-70
2024/02/01 09:51:04;;;;;;;5.28;3.15;;;10.20;40.20;;;;;;5072891;28;20033;-70
2024/02/01 09:53:30;;;;;;;9.73;3.20;;;10.10;40.70;;;;;;5057053;28;20024;-70
2024/02/01 09:58:43;;;;;;;7.20;2.88;;;10.10;40.50;;;;;;5073764;28;20417;-69
2024/02/01 10:01:10;;;;;;;4.20;1.85;;;9.70;41.50;;;;;;5072766;28;20360;-70
2024/02/01 10:04:01;;;;;;;5.57;2.40;;;9.40;41.80;;;;;;5073627;28;20028;-70
2024/02/01 10:06:27;;;;;;;5.25;3.72;;;9.40;42.90;;;;;;5056808;28;20033;-72
2024/02/01 10:11:37;;;;;;;4.70;3.05;;;9.70;42.10;;;;;;5072711;28;20452;-70
2024/02/01 10:14:03;;;;;;;4.63;2.85;;;9.90;41.80;;;;;;5074912;28;20028;-70
2024/02/01 10:16:35;;;;;;;4.18;2.25;;;10.00;41.50;;;;;;5073305;28;20045;-70
2024/02/01 10:19:20;;;;;;;3.95;2.65;;;10.20;41.50;;;;;;5073349;28;20028;-72
2024/02/01 10:21:46;;;;;;;3.20;1.88;;;10.40;40.10;;;;;;5073980;28;20036;-70
2024/02/01 10:24:14;;;;;;;5.28;3.60;;;10.70;40.10;;;;;;5074304;28;20056;-70
2024/02/01 10:26:40;;;;;;;6.25;3.35;;;10.80;39.60;;;;;;5074121;28;20032;-70
2024/02/01 10:29:07;;;;;;;3.35;2.05;;;10.80;40.00;;;;;;5074349;28;20033;-70
2024/02/01 10:31:36;;;;;;;3.10;1.63;;;10.80;39.10;;;;;;5073625;28;20501;-70
2024/02/01 10:34:10;;;;;;;7.68;2.88;;;10.60;39.70;;;;;;5073051;28;20495;-70
2024/02/01 10:36:43;;;;;;;2.97;2.33;;;10.70;40.50;;;;;;5073027;28;20800;-70
2024/02/01 10:39:33;;;;;;;3.05;2.47;;;10.90;40.00;;;;;;5073032;28;20390;-70
2024/02/01 10:42:09;;;;;;;3.60;2.00;;;10.90;40.00;;;;;;5073412;28;20040;-70
2024/02/01 10:44:41;;;;;;;4.15;2.35;;;11.00;39.70;;;;;;5072845;28;20025;-70
2024/02/01 10:47:15;;;;;;;6.40;3.38;;;11.00;39.40;;;;;;5072407;28;20043;-71
2024/02/01 10:49:52;;;;;;;8.65;3.15;;;11.00;39.30;;;;;;5072830;28;20111;-73
2024/02/01 10:52:21;;;;;;;4.32;3.67;;;11.00;39.10;;;;;;5071899;28;20417;-72
2024/02/01 10:55:09;;;;;;;6.35;4.72;;;11.00;39.20;;;;;;5055946;28;20472;-73
2024/02/01 10:57:50;;;;;;;5.63;2.55;;;11.10;39.10;;;;;;5074159;28;20120;-73
2024/02/01 11:03:05;;;;;;;13.52;2.80;;;12.00;37.40;;;;;;5073678;28;20031;-73
2024/02/01 11:05:31;;;;;;;13.98;3.60;;;12.60;36.10;;;;;;5072511;28;20083;-71
2024/02/01 11:07:58;;;;;;;5.28;2.65;;;12.90;35.80;;;;;;5072268;28;20032;-71
2024/02/01 11:10:26;;;;;;;1.98;1.35;;;12.70;34.50;;;;;;5071813;28;20067;-71
2024/02/01 11:12:54;;;;;;;5.80;2.88;;;12.80;35.50;;;;;;5073528;28;20037;-70
2024/02/01 11:15:39;;;;;;;3.20;1.67;;;12.80;35.30;;;;;;5072126;28;20040;-71
2024/02/01 11:18:24;;;;;;;3.28;2.05;;;12.70;34.60;;;;;;5071838;28;20028;-71
2024/02/01 11:21:09;;;;;;;8.77;3.05;;;12.70;34.50;;;;;;5071424;28;20136;-73
2024/02/01 11:23:39;;;;;;;5.75;2.13;;;12.60;35.30;;;;;;5072026;28;20105;-73
2024/02/01 11:26:25;;;;;;;3.95;1.85;;;12.30;34.60;;;;;;5088855;28;20576;-71
2024/02/01 11:28:51;;;;;;;4.10;2.50;;;11.70;35.70;;;;;;5055310;28;20039;-70
2024/02/01 11:31:19;;;;;;;2.35;1.55;;;11.50;36.80;;;;;;5072583;28;20499;-70
2024/02/01 11:33:45;;;;;;;12.75;2.45;;;11.40;36.90;;;;;;5071919;28;20397;-71
2024/02/01 11:36:11;;;;;;;2.75;1.67;;;11.30;36.90;;;;;;5071750;28;20420;-70
2024/02/01 11:38:40;;;;;;;4.53;2.13;;;11.30;37.30;;;;;;5071890;28;20038;-71
2024/02/01 11:41:06;;;;;;;3.75;2.17;;;11.50;37.20;;;;;;5054450;28;20048;-71
2024/02/01 11:43:33;;;;;;;;;;;11.60;37.20;;;;;;5073637;28;20063;-70
2024/02/01 11:45:59;;;;;;;5.27;2.93;;;11.60;36.80;;;;;;5054896;28;19920;-71
2024/02/01 11:48:25;;;;;;;3.20;1.75;;;11.50;37.40;;;;;;5072667;28;20028;-71
2024/02/01 11:50:59;;;;;;;8.07;3.17;;;11.50;37.60;;;;;;5072113;28;20037;-71
2024/02/01 11:53:27;;;;;;;6.85;2.67;;;11.40;37.50;;;;;;5072856;28;20431;-71
2024/02/01 11:55:54;;;;;;;4.28;2.80;;;11.30;37.90;;;;;;5071612;28;20028;-71
2024/02/01 11:58:22;;;;;;;6.97;2.50;;;11.30;37.40;;;;;;5072465;28;20482;-71
2024/02/01 12:01:07;;;;;;;15.38;4.72;;;11.20;37.90;;;;;;5071779;28;20110;-71
2024/02/01 12:03:33;;;;;;;4.72;1.92;;;11.30;38.50;;;;;;5071420;28;20087;-73
2024/02/01 12:06:01;;;;;;;6.85;3.63;;;11.50;38.40;;;;;;5072131;28;20037;-71
2024/02/01 12:08:27;;;;;;;9.77;4.20;;;11.60;37.40;;;;;;5072442;28;20028;-70
2024/02/01 12:10:55;;;;;;;4.25;2.58;;;11.80;37.40;;;;;;5069830;28;20041;-71
2024/02/01 12:13:22;;;;;;;9.75;2.63;;;12.00;37.20;;;;;;5071228;28;20542;-71
2024/02/01 12:16:07;;;;;;;6.65;4.10;;;12.00;36.90;;;;;;5071942;28;20046;-71
2024/02/01 12:18:33;;;;;;;5.72;2.90;;;12.10;36.80;;;;;;5070653;28;20060;-71
2024/02/01 12:21:00;;;;;;;7.72;3.33;;;12.20;35.70;;;;;;5070253;28;20040;-71
2024/02/01 12:23:26;;;;;;;3.70;2.15;;;12.40;36.00;;;;;;5070824;28;20056;-71
2024/02/01 12:25:58;;;;;;;6.22;3.47;;;12.70;35.80;;;;;;5070836;28;20432;-71
2024/02/01 12:28:24;;;;;;;3.75;2.75;;;12.90;35.20;;;;;;5070789;28;20063;-71
2024/02/01 12:30:50;;;;;;;3.80;2.55;;;13.30;34.40;;;;;;5070038;28;20037;-71
2024/02/01 12:33:18;;;;;;;4.65;2.42;;;13.60;33.70;;;;;;5070730;28;20025;-71
2024/02/01 12:35:46;;;;;;;6.45;3.05;;;13.90;33.50;;;;;;5070503;28;20029;-71
2024/02/01 12:38:14;;;;;;;5.68;2.28;;;14.00;33.20;;;;;;5070651;28;20028;-71
2024/02/01 12:40:40;;;;;;;4.13;2.67;;;14.20;32.80;;;;;;5069920;28;20489;-71
2024/02/01 12:43:06;;;;;;;4.95;3.17;;;14.60;32.50;;;;;;5070958;28;20051;-71
2024/02/01 12:45:32;;;;;;;9.88;3.75;;;14.80;31.90;;;;;;5071749;28;20094;-71
2024/02/01 12:47:59;;;;;;;7.32;3.60;;;15.00;31.30;;;;;;5053934;28;20032;-71
2024/02/01 12:50:25;;;;;;;6.65;3.72;;;15.10;30.60;;;;;;5069661;28;20037;-71
2024/02/01 12:52:51;;;;;;;4.93;2.58;;;15.00;30.80;;;;;;5070277;28;20032;-71
2024/02/01 12:55:18;;;;;;;5.78;3.63;;;15.20;30.70;;;;;;5071461;28;20040;-71
2024/02/01 12:57:46;;;;;;;;;;;15.30;30.50;;;;;;5070842;28;20043;-71
2024/02/01 13:00:13;;;;;;;6.53;3.65;;;15.20;30.10;;;;;;5069442;28;20025;-71
2024/02/01 13:02:59;;;;;;;4.90;3.83;;;15.00;30.60;;;;;;5070246;28;20033;-71
2024/02/01 13:05:25;;;;;;;7.95;4.38;;;15.30;30.60;;;;;;5071267;28;20028;-71
2024/02/01 13:07:51;;;;;;;3.95;2.22;;;15.50;30.00;;;;;;5071408;28;20047;-71
2024/02/01 13:10:17;;;;;;;4.72;2.03;;;15.70;30.40;;;;;;5069624;28;20045;-71
2024/02/01 13:12:57;;;;;;;9.50;4.93;;;15.40;30.50;;;;;;5070108;28;20036;-71
2024/02/01 13:15:24;;;;;;;6.78;4.35;;;15.20;31.30;;;;;;5070180;28;20443;-71
2024/02/01 13:17:51;;;;;;;6.60;3.25;;;15.00;31.70;;;;;;5069694;28;20078;-71
2024/02/01 13:20:21;;;;;;;4.68;1.98;;;14.70;31.50;;;;;;5070502;28;20123;-71
2024/02/01 13:22:49;;;;;;;3.67;1.90;;;14.50;32.90;;;;;;5086085;28;20036;-71
2024/02/01 13:28:00;;;;;;;6.13;3.15;;;14.20;33.10;;;;;;5070051;28;20503;-71
2024/02/01 13:30:26;;;;;;;10.20;4.35;;;14.10;33.70;;;;;;5069315;28;20045;-71
2024/02/01 13:32:52;;;;;;;4.43;3.13;;;14.00;33.30;;;;;;5069950;28;20039;-71
2024/02/01 13:35:18;;;;;;;8.95;4.85;;;13.80;33.50;;;;;;5071126;28;20075;-71
2024/02/01 13:40:30;;;;;;;6.47;3.03;;;13.60;35.70;;;;;;5069320;28;20131;-71
2024/02/01 13:42:56;;;;;;;2.58;1.85;;;13.60;34.50;;;;;;5069864;28;20044;-71
2024/02/01 13:45:22;;;;;;;2.08;1.60;;;13.60;34.70;;;;;;5071315;28;20051;-70
2024/02/01 13:47:50;;;;;;;4.25;2.13;;;13.50;35.50;;;;;;5070811;28;20489;-71
2024/02/01 13:50:17;;;;;;;4.25;2.15;;;13.50;34.80;;;;;;5085627;28;20052;-71
2024/02/01 13:52:43;;;;;;;4.97;3.58;;;13.60;34.80;;;;;;5070843;28;20032;-70
2024/02/01 13:55:11;;;;;;;4.40;1.38;;;13.70;34.40;;;;;;5069376;28;20037;-71
2024/02/01 14:00:23;;;;;;;4.07;3.58;;;13.80;34.60;;;;;;5069349;28;20059;-71
2024/02/01 14:03:10;;;;;;;4.95;4.18;;;13.90;34.70;;;;;;5069573;28;20033;-71
2024/02/01 14:05:37;;;;;;;4.25;3.53;;;13.90;34.30;;;;;;5069758;28;20512;-70
2024/02/01 14:08:08;;;;;;;6.60;3.90;;;13.90;34.40;;;;;;5069431;28;20493;-71
2024/02/01 14:10:35;;;;;;;5.45;2.83;;;13.90;34.10;;;;;;5068829;28;20036;-71
2024/02/01 14:13:01;;;;;;;5.43;3.65;;;13.90;34.40;;;;;;5069523;28;20025;-71
2024/02/01 14:15:27;;;;;;;8.95;4.68;;;13.80;35.10;;;;;;5070515;28;20040;-72